Time;durP1;ratioP1;P1;durP2;ratioP2;P2;SDS_P1;SDS_P2;PMS_P1;PMS_P2;Temp;Humidity;BMP_temperature;BMP_pressure;BME280_temperature;BME280_humidity;BME280_pressure;Samples;Min_cycle;Max_cycle;Signal;HPM_P1;HPM_P2
2023/05/20 00:01:56;;;;;;;19.48;11.73;;;;;;;12.31;71.23;102279.09;4991420;28;20034;-59
2023/05/20 00:04:21;;;;;;;20.77;11.57;;;;;;;12.23;72.06;102271.34;4991739;28;20065;-58
2023/05/20 00:06:46;;;;;;;21.90;11.50;;;;;;;12.21;72.26;102273.56;4991891;28;20037;-59
2023/05/20 00:09:12;;;;;;;19.50;11.30;;;;;;;12.17;72.36;102274.13;4990686;28;20026;-58
2023/05/20 00:11:37;;;;;;;19.05;11.68;;;;;;;12.14;72.74;102271.91;4990695;28;20027;-58
2023/05/20 00:14:02;;;;;;;20.25;11.27;;;;;;;12.07;73.19;102268.59;4984942;28;20447;-58
2023/05/20 00:16:28;;;;;;;20.77;11.57;;;;;;;12.08;73.30;102266.69;4991378;28;20037;-58
2023/05/20 00:18:53;;;;;;;19.38;11.73;;;;;;;12.05;72.91;102270.81;4991655;28;20039;-58
2023/05/20 00:21:18;;;;;;;20.88;11.93;;;;;;;12.03;73.54;102273.06;4991742;28;20030;-58
2023/05/20 00:23:44;;;;;;;19.60;11.75;;;;;;;11.98;74.03;102271.13;4991773;28;20034;-58
2023/05/20 00:26:09;;;;;;;19.17;11.35;;;;;;;11.92;74.33;102271.41;4991647;28;20030;-58
2023/05/20 00:28:35;;;;;;;21.30;12.00;;;;;;;11.92;74.13;102268.63;4991678;28;20093;-59
2023/05/20 00:31:00;;;;;;;20.27;11.85;;;;;;;11.91;73.87;102266.97;4991833;28;20031;-57
2023/05/20 00:33:25;;;;;;;18.63;11.52;;;;;;;11.90;73.92;102268.91;4991407;28;20390;-58
2023/05/20 00:35:51;;;;;;;20.63;12.32;;;;;;;11.83;74.86;102265.56;4991478;28;20038;-59
2023/05/20 00:38:16;;;;;;;19.83;11.88;;;;;;;11.82;74.26;102270.31;4990455;28;20213;-57
2023/05/20 00:40:41;;;;;;;21.05;11.95;;;;;;;11.79;74.83;102264.50;4993200;28;20485;-58
2023/05/20 00:43:07;;;;;;;19.73;11.55;;;;;;;11.76;75.00;102271.41;4995876;28;20069;-58
2023/05/20 00:45:32;;;;;;;21.08;12.20;;;;;;;11.71;75.52;102263.09;4995672;28;20092;-59
2023/05/20 00:48:00;;;;;;;20.90;12.25;;;;;;;11.65;75.84;102261.47;4995042;28;20057;-58
2023/05/20 00:50:26;;;;;;;19.75;12.02;;;;;;;11.62;76.04;102259.25;4995209;28;20173;-58
2023/05/20 00:52:54;;;;;;;20.23;12.07;;;;;;;11.60;76.26;102261.44;4995174;28;20022;-58
2023/05/20 00:55:20;;;;;;;20.05;12.10;;;;;;;11.55;76.60;102243.72;4995524;28;20023;-59
2023/05/20 00:57:45;;;;;;;20.55;12.18;;;;;;;11.52;77.03;102257.31;4995221;28;20026;-59
2023/05/20 01:00:12;;;;;;;20.75;12.10;;;;;;;11.50;77.24;102256.75;4994904;28;20398;-58
2023/05/20 01:02:38;;;;;;;19.63;11.98;;;;;;;11.47;77.44;102258.16;4994751;28;20027;-57
2023/05/20 01:05:03;;;;;;;20.50;12.10;;;;;;;11.45;77.90;102256.75;4994689;28;20022;-58
2023/05/20 01:07:29;;;;;;;19.73;12.23;;;;;;;11.43;77.74;102257.03;4994858;28;20029;-59
2023/05/20 01:09:55;;;;;;;19.23;11.95;;;;;;;11.39;78.11;102259.53;4986851;28;20045;-58
2023/05/20 01:12:23;;;;;;;20.50;12.40;;;;;;;11.35;78.37;102255.63;4995197;28;20466;-59
2023/05/20 01:14:55;;;;;;;20.02;12.13;;;;;;;11.27;78.58;102255.38;4995090;28;20034;-58
2023/05/20 01:17:25;;;;;;;20.88;12.48;;;;;;;11.29;79.03;102256.75;4993057;28;20026;-58
2023/05/20 01:19:53;;;;;;;20.48;12.50;;;;;;;11.26;79.07;102254.53;4994368;28;20057;-58
2023/05/20 01:22:18;;;;;;;20.95;12.48;;;;;;;11.27;79.29;102244.28;4994945;28;20049;-59
2023/05/20 01:24:48;;;;;;;20.77;12.68;;;;;;;11.20;78.99;102244.56;4995078;28;20367;-58
2023/05/20 01:27:13;;;;;;;21.50;12.38;;;;;;;11.20;79.62;102245.38;4995008;28;20545;-58
2023/05/20 01:29:40;;;;;;;22.00;12.77;;;;;;;11.22;79.45;102250.66;4994814;28;20026;-58
2023/05/20 01:32:21;;;;;;;19.80;12.30;;;;;;;11.19;79.41;102246.47;4994772;28;20061;-58
2023/05/20 01:34:48;;;;;;;20.17;12.45;;;;;;;11.15;79.88;102250.06;4994451;28;20081;-58
2023/05/20 01:37:14;;;;;;;19.30;12.18;;;;;;;11.14;80.07;102246.50;4994506;28;20030;-62
2023/05/20 01:39:41;;;;;;;19.20;12.25;;;;;;;11.12;80.32;102242.34;4993708;28;20040;-57
2023/05/20 01:42:08;;;;;;;20.08;12.30;;;;;;;11.08;81.01;102240.13;4993091;28;20027;-58
2023/05/20 01:44:34;;;;;;;21.70;12.52;;;;;;;11.04;81.22;102233.47;4994439;28;20040;-58
2023/05/20 01:47:00;;;;;;;23.13;12.98;;;;;;;10.99;81.70;102227.91;4992561;28;20058;-56
2023/05/20 01:49:26;;;;;;;21.75;12.90;;;;;;;10.95;81.99;102242.59;4993876;28;20034;-58
2023/05/20 01:51:51;;;;;;;20.75;12.45;;;;;;;10.89;82.48;102238.97;4993255;28;20037;-58
2023/05/20 01:54:16;;;;;;;20.05;12.70;;;;;;;10.90;82.38;102232.34;4993998;28;20492;-58
2023/05/20 01:56:42;;;;;;;21.65;12.75;;;;;;;10.84;83.14;102239.78;4994045;28;20101;-58
2023/05/20 01:59:07;;;;;;;20.77;12.38;;;;;;;10.83;82.83;102227.06;4993861;28;20022;-57
2023/05/20 02:01:32;;;;;;;21.02;13.50;;;;;;;10.82;83.23;102232.88;4993791;28;20026;-57
2023/05/20 02:03:57;;;;;;;20.90;13.60;;;;;;;10.75;84.12;102228.44;4992719;28;20022;-55
2023/05/20 02:06:23;;;;;;;21.48;12.65;;;;;;;10.74;84.07;102226.78;4988023;28;20133;-57
2023/05/20 02:08:48;;;;;;;21.55;13.90;;;;;;;10.73;84.08;102232.56;4994281;28;20030;-57
2023/05/20 02:11:13;;;;;;;20.17;12.70;;;;;;;10.69;84.96;102232.28;4993944;28;20029;-58
2023/05/20 02:13:38;;;;;;;21.33;13.63;;;;;;;10.69;84.60;102232.28;4994023;28;20096;-57
2023/05/20 02:16:04;;;;;;;19.90;12.70;;;;;;;10.67;84.56;102226.22;4993996;28;20048;-57
2023/05/20 02:18:31;;;;;;;20.55;13.40;;;;;;;10.66;85.35;102229.25;4994026;28;20348;-57
2023/05/20 02:21:01;;;;;;;21.05;13.07;;;;;;;10.63;85.76;102227.03;4992245;28;20344;-59
2023/05/20 02:23:26;;;;;;;20.23;12.75;;;;;;;10.61;85.95;102224.53;4993882;28;20031;-58
2023/05/20 02:25:51;;;;;;;19.67;13.18;;;;;;;10.63;85.50;102229.81;4993825;28;20030;-58
2023/05/20 02:28:17;;;;;;;20.38;13.40;;;;;;;10.61;85.78;102225.38;4993442;28;20422;-57
2023/05/20 02:30:42;;;;;;;21.25;13.25;;;;;;;10.61;86.36;102232.81;4992618;28;20026;-57
2023/05/20 02:33:08;;;;;;;21.65;13.60;;;;;;;10.60;86.19;102217.31;4993339;28;20109;-58
2023/05/20 02:35:34;;;;;;;22.17;13.40;;;;;;;10.63;85.91;102221.50;4993302;28;20105;-57
2023/05/20 02:37:59;;;;;;;21.27;12.70;;;;;;;10.59;86.61;102218.41;4993540;28;20101;-58
2023/05/20 02:40:25;;;;;;;21.55;13.38;;;;;;;10.54;87.29;102223.94;4993257;28;20026;-57
2023/05/20 02:42:50;;;;;;;24.40;14.10;;;;;;;10.53;87.22;102216.75;4993293;28;20022;-59
2023/05/20 02:45:15;;;;;;;22.27;13.60;;;;;;;10.51;87.49;102228.09;4993384;28;20030;-57
2023/05/20 02:47:41;;;;;;;22.50;13.70;;;;;;;10.50;87.30;102226.44;4993210;28;20473;-58
2023/05/20 02:50:07;;;;;;;21.83;13.50;;;;;;;10.47;87.82;102224.19;4993042;28;20033;-57
2023/05/20 02:52:33;;;;;;;21.42;13.40;;;;;;;10.45;88.43;102226.41;4993118;28;20038;-58
2023/05/20 02:54:59;;;;;;;21.52;13.30;;;;;;;10.43;88.49;102223.91;4993097;28;20041;-58
2023/05/20 02:57:26;;;;;;;21.27;13.50;;;;;;;10.42;88.79;102222.25;4992997;28;20108;-57
2023/05/20 02:59:51;;;;;;;22.60;12.98;;;;;;;10.41;88.90;102217.81;4989283;28;20223;-56
2023/05/20 03:02:16;;;;;;;22.45;13.18;;;;;;;10.41;88.47;102214.22;4990013;28;20089;-57
2023/05/20 03:04:42;;;;;;;21.27;13.70;;;;;;;10.40;88.78;102220.88;4992209;28;20030;-57
2023/05/20 03:07:07;;;;;;;22.38;13.60;;;;;;;10.37;89.62;102215.84;4992932;28;20490;-59
2023/05/20 03:09:33;;;;;;;20.17;13.18;;;;;;;10.34;89.18;102219.97;4992911;28;20390;-56
2023/05/20 03:11:58;;;;;;;19.95;13.55;;;;;;;10.32;89.65;102213.06;4990356;28;20474;-56
2023/05/20 03:14:23;;;;;;;20.92;13.55;;;;;;;10.28;89.96;102215.53;4991874;28;20164;-57
2023/05/20 03:16:49;;;;;;;22.35;13.25;;;;;;;10.24;89.88;102215.25;4992696;28;20105;-57
2023/05/20 03:19:15;;;;;;;19.50;13.13;;;;;;;10.26;89.96;102209.44;4992430;28;20030;-57
2023/05/20 03:21:40;;;;;;;21.67;13.45;;;;;;;10.24;90.16;102218.03;4993022;28;20521;-56
2023/05/20 03:24:06;;;;;;;21.75;12.98;;;;;;;10.19;90.86;102206.91;4992572;28;20031;-57
2023/05/20 03:26:32;;;;;;;21.50;13.20;;;;;;;10.15;91.47;102216.88;4992475;28;20026;-58
2023/05/20 03:28:57;;;;;;;20.33;12.70;;;;;;;10.13;91.28;102216.31;4991163;28;20053;-58
2023/05/20 03:31:23;;;;;;;22.60;13.23;;;;;;;10.08;91.75;102219.03;4992283;28;20486;-56
2023/05/20 03:33:48;;;;;;;22.58;13.55;;;;;;;10.04;92.66;102226.22;4991968;28;20142;-56
2023/05/20 03:36:13;;;;;;;21.35;13.27;;;;;;;10.02;92.24;102223.69;4992026;28;20022;-56
2023/05/20 03:38:39;;;;;;;21.75;13.30;;;;;;;9.97;93.44;102221.75;4991385;28;20394;-58
2023/05/20 03:41:04;;;;;;;21.10;14.32;;;;;;;9.98;93.11;102222.59;4992188;28;20105;-58
2023/05/20 03:43:29;;;;;;;21.83;13.57;;;;;;;9.93;93.66;102217.00;4990528;28;20027;-58
2023/05/20 03:45:55;;;;;;;23.42;14.20;;;;;;;9.89;94.45;102219.50;4992413;28;20030;-57
2023/05/20 03:48:20;;;;;;;23.08;13.88;;;;;;;9.86;94.51;102213.66;4990283;28;20046;-57
2023/05/20 03:50:46;;;;;;;22.45;13.65;;;;;;;9.87;94.67;102220.88;4992130;28;20042;-57
2023/05/20 03:53:11;;;;;;;22.23;13.93;;;;;;;9.86;95.15;102216.44;4991856;28;20469;-57
2023/05/20 03:55:37;;;;;;;21.77;13.80;;;;;;;9.83;94.91;102217.81;4968380;28;20635;-56
2023/05/20 03:58:02;;;;;;;20.00;13.35;;;;;;;9.82;95.12;102222.47;4969770;28;20086;-57
2023/05/20 04:00:30;;;;;;;21.13;13.32;;;;;;;9.82;95.46;102216.97;4972445;28;20027;-57
2023/05/20 04:02:55;;;;;;;20.88;13.48;;;;;;;9.83;95.10;102215.84;4972233;28;20475;-57
2023/05/20 04:05:22;;;;;;;21.15;13.05;;;;;;;9.81;95.76;102206.19;4971222;28;20048;-57
2023/05/20 04:07:48;;;;;;;22.65;13.10;;;;;;;9.83;95.42;102209.50;4972312;28;20039;-57
2023/05/20 04:10:13;;;;;;;20.83;12.85;;;;;;;9.86;95.10;102214.50;4972712;28;20033;-57
2023/05/20 04:12:39;;;;;;;20.75;12.73;;;;;;;9.88;95.45;102211.47;4972234;28;20031;-57
2023/05/20 04:15:05;;;;;;;21.27;12.80;;;;;;;9.86;95.71;102211.75;4972726;28;20027;-57
2023/05/20 04:17:30;;;;;;;21.27;12.63;;;;;;;9.88;96.03;102209.53;4976852;28;20478;-57
2023/05/20 04:19:58;;;;;;;21.27;12.70;;;;;;;9.91;95.74;102217.28;4976559;28;20037;-59
2023/05/20 04:22:23;;;;;;;21.60;12.75;;;;;;;9.94;96.06;102216.78;4977026;28;20054;-58
2023/05/20 04:24:49;;;;;;;21.42;12.57;;;;;;;9.96;95.87;102216.50;4976565;28;20069;-58
2023/05/20 04:27:15;;;;;;;22.42;13.15;;;;;;;9.98;95.80;102214.28;4976997;28;20033;-59
2023/05/20 04:29:44;;;;;;;22.65;12.60;;;;;;;10.05;95.69;102222.34;4979896;28;20442;-58
2023/05/20 04:32:17;;;;;;;19.92;12.70;;;;;;;10.09;95.33;102226.22;4976414;28;20067;-57
2023/05/20 04:34:43;;;;;;;22.55;13.18;;;;;;;10.14;95.29;102217.97;4975350;28;20425;-58
2023/05/20 04:37:09;;;;;;;22.42;13.60;;;;;;;10.17;94.95;102224.88;4976189;28;20171;-58
2023/05/20 04:39:35;;;;;;;22.45;13.30;;;;;;;10.24;94.84;102219.94;4976485;28;20038;-58
2023/05/20 04:42:01;;;;;;;20.98;12.95;;;;;;;10.27;94.72;102224.94;4976063;28;20038;-58
2023/05/20 04:44:27;;;;;;;21.80;13.32;;;;;;;10.32;94.68;102219.41;4976181;28;20031;-59
2023/05/20 04:46:52;;;;;;;21.02;13.32;;;;;;;10.38;94.28;102212.00;4975731;28;20045;-58
2023/05/20 04:49:17;;;;;;;21.73;13.00;;;;;;;10.44;93.89;102220.06;4976033;28;20486;-56
2023/05/20 04:51:43;;;;;;;21.75;13.40;;;;;;;10.51;93.85;102230.03;4969900;28;20045;-58
2023/05/20 04:54:08;;;;;;;21.73;13.48;;;;;;;10.55;93.21;102220.91;4975732;28;20070;-59
2023/05/20 04:56:35;;;;;;;20.50;12.57;;;;;;;10.62;93.29;102223.41;4976110;28;20037;-56
2023/05/20 04:59:01;;;;;;;22.00;12.65;;;;;;;10.68;92.96;102219.56;4975710;28;20030;-59
2023/05/20 05:01:26;;;;;;;21.05;12.73;;;;;;;10.73;92.33;102219.56;4975668;28;20420;-58
2023/05/20 05:03:51;;;;;;;20.98;12.60;;;;;;;10.80;92.49;102216.56;4975333;28;20030;-57
2023/05/20 05:06:17;;;;;;;20.73;12.85;;;;;;;10.84;92.04;102225.94;4975387;28;20086;-57
2023/05/20 05:08:42;;;;;;;20.13;12.98;;;;;;;10.83;92.24;102218.75;4975877;28;20031;-58
2023/05/20 05:11:07;;;;;;;20.40;13.00;;;;;;;10.91;91.73;102215.44;4975839;28;20039;-59
2023/05/20 05:13:33;;;;;;;19.77;12.70;;;;;;;10.93;91.81;102210.47;4975522;28;20026;-58
2023/05/20 05:16:00;;;;;;;21.65;13.38;;;;;;;10.95;91.52;102210.22;4985145;28;20037;-59
2023/05/20 05:18:25;;;;;;;22.50;13.02;;;;;;;11.03;91.59;102206.03;4995168;28;20034;-60
2023/05/20 05:20:58;;;;;;;20.15;12.27;;;;;;;11.11;91.42;102204.66;4994900;28;20029;-58
2023/05/20 05:23:23;;;;;;;19.60;12.77;;;;;;;11.17;91.17;102207.16;4995177;28;20022;-59
2023/05/20 05:25:52;;;;;;;20.45;12.65;;;;;;;11.29;90.76;102206.06;4995254;28;20437;-59
2023/05/20 05:28:18;;;;;;;21.27;13.27;;;;;;;11.34;89.70;102194.97;4994612;28;20034;-59
2023/05/20 05:30:43;;;;;;;20.50;12.55;;;;;;;11.39;90.10;102194.94;4995056;28;20033;-59
2023/05/20 05:33:08;;;;;;;20.98;12.63;;;;;;;11.42;89.60;102197.16;4994798;28;20027;-58
2023/05/20 05:35:34;;;;;;;21.83;13.40;;;;;;;11.50;89.57;102195.78;4994859;28;20391;-60
2023/05/20 05:37:59;;;;;;;19.83;12.25;;;;;;;11.56;88.83;102197.44;4994870;28;20113;-59
2023/05/20 05:40:26;;;;;;;20.38;12.52;;;;;;;11.62;88.29;102204.63;4994827;28;20552;-57
2023/05/20 05:42:51;;;;;;;20.20;12.98;;;;;;;11.69;88.02;102196.88;4995058;28;20521;-58
2023/05/20 05:45:16;;;;;;;19.55;12.20;;;;;;;11.77;87.82;102205.72;4994688;28;20026;-57
2023/05/20 05:47:41;;;;;;;20.35;12.73;;;;;;;11.82;86.49;102208.47;4986883;28;20120;-57
2023/05/20 05:50:08;;;;;;;20.02;12.52;;;;;;;11.88;86.65;102204.56;4994561;28;20026;-59
2023/05/20 05:52:34;;;;;;;19.88;12.23;;;;;;;11.93;86.45;102187.91;4994345;28;20036;-57
2023/05/20 05:54:59;;;;;;;20.27;12.48;;;;;;;12.00;85.74;102199.56;4994284;28;20038;-56
2023/05/20 05:57:25;;;;;;;20.02;12.38;;;;;;;12.09;85.78;102197.03;4993017;28;20038;-57
2023/05/20 05:59:50;;;;;;;21.23;12.60;;;;;;;12.18;84.75;102200.06;4994288;28;20026;-58
2023/05/20 06:02:15;;;;;;;22.55;12.30;;;;;;;12.24;84.84;102189.75;4994397;28;20088;-58
2023/05/20 06:04:41;;;;;;;20.60;12.40;;;;;;;12.31;84.36;102187.53;4992748;28;20471;-59
2023/05/20 06:07:06;;;;;;;20.88;12.32;;;;;;;12.38;84.70;102192.75;4993888;28;20034;-58
2023/05/20 06:09:31;;;;;;;21.45;12.27;;;;;;;12.42;83.31;102202.97;4994233;28;20030;-57
2023/05/20 06:11:56;;;;;;;18.65;12.05;;;;;;;12.50;83.49;102200.75;4993987;28;20030;-58
2023/05/20 06:14:22;;;;;;;20.80;12.55;;;;;;;12.57;82.37;102190.16;4994147;28;20042;-59
2023/05/20 06:16:47;;;;;;;20.70;11.90;;;;;;;12.65;82.45;102200.66;4994116;28;20474;-58
2023/05/20 06:19:12;;;;;;;23.27;12.48;;;;;;;12.73;80.89;102199.22;4979692;28;20018;-58
2023/05/20 06:21:37;;;;;;;19.70;12.27;;;;;;;12.82;80.30;102189.16;4974420;28;20033;-58
2023/05/20 06:24:04;;;;;;;19.77;12.45;;;;;;;12.90;79.84;102191.31;4974553;28;20030;-57
2023/05/20 06:26:29;;;;;;;20.40;12.32;;;;;;;13.02;79.55;102182.59;4974401;28;20471;-58
2023/05/20 06:28:54;;;;;;;19.63;11.80;;;;;;;13.15;80.00;102178.31;4974574;28;20074;-58
2023/05/20 06:31:20;;;;;;;19.08;11.60;;;;;;;13.24;78.33;102181.31;4974372;28;20030;-57
2023/05/20 06:33:45;;;;;;;21.73;11.80;;;;;;;13.30;77.95;102177.38;4974222;28;20478;-59
2023/05/20 06:36:10;;;;;;;20.88;12.10;;;;;;;13.40;77.85;102173.72;4974250;28;20035;-58
2023/05/20 06:38:36;;;;;;;21.63;11.88;;;;;;;13.45;77.22;102165.31;4973959;28;20113;-58
2023/05/20 06:41:01;;;;;;;19.80;11.98;;;;;;;13.54;77.19;102165.50;4974129;28;20539;-59
2023/05/20 06:43:26;;;;;;;18.20;11.35;;;;;;;13.64;76.50;102168.19;4968205;28;20031;-57
2023/05/20 06:45:52;;;;;;;18.27;11.63;;;;;;;13.75;74.53;102163.31;4973949;28;20493;-56
2023/05/20 06:48:18;;;;;;;18.92;11.60;;;;;;;13.84;75.02;102169.88;4973713;28;20059;-57
2023/05/20 06:50:43;;;;;;;19.95;10.85;;;;;;;13.98;75.16;102156.09;4973614;28;20081;-57
2023/05/20 06:53:09;;;;;;;19.73;11.18;;;;;;;14.07;73.16;102156.28;4973886;28;20026;-57
2023/05/20 06:55:34;;;;;;;18.52;11.23;;;;;;;14.11;72.48;102159.28;4974271;28;20435;-58
2023/05/20 06:57:59;;;;;;;17.83;11.05;;;;;;;14.15;71.55;102154.75;4973794;28;20022;-58
2023/05/20 07:00:25;;;;;;;19.45;10.82;;;;;;;14.27;71.30;102157.09;4973832;28;20417;-59
2023/05/20 07:02:50;;;;;;;19.42;11.20;;;;;;;14.37;70.42;102151.38;4973890;28;20035;-58
2023/05/20 07:05:15;;;;;;;18.38;11.07;;;;;;;14.45;70.00;102149.91;4973496;28;20118;-58
2023/05/20 07:07:40;;;;;;;19.40;11.23;;;;;;;14.56;70.36;102156.97;4973677;28;20031;-59
2023/05/20 07:10:07;;;;;;;17.05;10.93;;;;;;;14.66;69.52;102140.16;4976047;28;20073;-57
2023/05/20 07:12:32;;;;;;;17.85;10.60;;;;;;;14.70;68.40;102140.38;4992565;28;20030;-58
2023/05/20 07:14:58;;;;;;;18.52;11.00;;;;;;;14.76;68.56;102138.34;4991535;28;20032;-58
2023/05/20 07:17:24;;;;;;;18.00;10.80;;;;;;;14.83;67.81;102138.75;4993012;28;20043;-58
2023/05/20 07:19:49;;;;;;;18.75;10.93;;;;;;;14.90;67.39;102155.09;4992452;28;20030;-58
2023/05/20 07:22:14;;;;;;;19.50;11.15;;;;;;;14.94;66.84;102145.81;4992741;28;20120;-58
2023/05/20 07:24:40;;;;;;;19.02;11.25;;;;;;;14.99;66.93;102147.69;4992700;28;20065;-58
2023/05/20 07:27:05;;;;;;;18.77;11.52;;;;;;;15.11;67.85;102138.84;4992515;28;20092;-58
2023/05/20 07:29:30;;;;;;;19.45;10.90;;;;;;;15.29;67.70;102137.16;4992427;28;20032;-59
2023/05/20 07:31:55;;;;;;;17.85;10.68;;;;;;;15.41;66.77;102133.84;4991318;28;20062;-59
2023/05/20 07:34:21;;;;;;;18.60;10.90;;;;;;;15.34;64.53;102131.47;4992626;28;20463;-58
2023/05/20 07:36:47;;;;;;;19.70;11.38;;;;;;;15.36;64.88;102134.78;4992585;28;20045;-59
2023/05/20 07:39:13;;;;;;;19.42;11.25;;;;;;;15.40;64.82;102140.56;4992378;28;20081;-59
2023/05/20 07:41:38;;;;;;;19.17;10.85;;;;;;;15.35;64.92;102132.31;4992528;28;20030;-58
2023/05/20 07:44:04;;;;;;;18.38;10.48;;;;;;;15.43;65.27;102126.84;4990103;28;20515;-57
2023/05/20 07:46:30;;;;;;;16.80;10.52;;;;;;;15.53;64.28;102133.34;4987979;28;20470;-58
2023/05/20 07:48:55;;;;;;;18.98;10.65;;;;;;;15.55;62.79;102122.72;4991697;28;20026;-58
2023/05/20 07:51:21;;;;;;;19.23;10.93;;;;;;;15.60;63.07;102128.19;4991572;28;20121;-58
2023/05/20 07:53:46;;;;;;;20.17;10.60;;;;;;;15.66;62.30;102121.38;4992562;28;20030;-58
2023/05/20 07:56:11;;;;;;;16.88;10.27;;;;;;;15.65;62.27;102121.66;4992283;28;20053;-58
2023/05/20 07:58:40;;;;;;;19.92;10.50;;;;;;;15.55;61.70;102126.31;4992506;28;20036;-59
2023/05/20 08:01:06;;;;;;;18.42;11.27;;;;;;;15.73;62.33;102121.78;4992152;28;20061;-57
2023/05/20 08:03:31;;;;;;;19.23;10.65;;;;;;;15.82;61.56;102126.63;4991999;28;20030;-58
2023/05/20 08:05:57;;;;;;;18.73;10.80;;;;;;;15.86;61.44;102113.75;4992541;28;20803;-58
2023/05/20 08:08:22;;;;;;;18.58;10.35;;;;;;;15.93;61.62;102108.56;4992522;28;20030;-59
2023/05/20 08:10:47;;;;;;;18.77;10.40;;;;;;;16.08;62.29;102109.38;4992438;28;20084;-58
2023/05/20 08:13:13;;;;;;;17.42;10.10;;;;;;;16.12;60.93;102104.81;4992418;28;20038;-59
2023/05/20 08:15:38;;;;;;;19.45;10.60;;;;;;;16.10;59.44;102107.09;4992312;28;20037;-58
2023/05/20 08:18:03;;;;;;;18.08;10.23;;;;;;;16.16;59.40;102111.41;4983696;28;20081;-59
2023/05/20 08:20:29;;;;;;;18.67;10.45;;;;;;;16.21;59.97;102111.31;4988902;28;20031;-58
2023/05/20 08:22:55;;;;;;;17.50;10.98;;;;;;;16.30;60.31;102106.63;4991117;28;20029;-57
2023/05/20 08:25:20;;;;;;;18.85;10.60;;;;;;;16.47;61.44;102105.97;4990123;28;20060;-57
2023/05/20 08:27:45;;;;;;;19.00;10.77;;;;;;;16.57;58.30;102116.06;4990159;28;20072;-61
2023/05/20 08:30:11;;;;;;;18.63;10.50;;;;;;;16.72;58.28;102100.09;4989912;28;20100;-58
2023/05/20 08:32:36;;;;;;;19.55;10.65;;;;;;;16.74;57.42;102103.34;4989988;28;20042;-58
2023/05/20 08:35:02;;;;;;;19.15;10.80;;;;;;;16.80;57.88;102096.53;4990246;28;20037;-58
2023/05/20 08:37:28;;;;;;;18.67;9.90;;;;;;;16.72;57.30;102102.88;4989917;28;20153;-57
2023/05/20 08:39:54;;;;;;;17.05;10.18;;;;;;;16.79;57.10;102092.88;4990170;28;20486;-58
2023/05/20 08:42:23;;;;;;;17.40;10.20;;;;;;;16.86;56.73;102095.22;4990248;28;20041;-58
2023/05/20 08:44:51;;;;;;;17.75;10.00;;;;;;;16.84;55.96;102083.53;4984454;28;20015;-58
2023/05/20 08:47:17;;;;;;;16.85;9.70;;;;;;;16.96;55.92;102086.63;4989934;28;20051;-58
2023/05/20 08:49:42;;;;;;;15.73;9.65;;;;;;;17.03;54.31;102090.91;4990076;28;20431;-59
2023/05/20 08:52:10;;;;;;;16.98;9.65;;;;;;;17.08;53.93;102093.59;4989950;28;20034;-58
2023/05/20 08:54:46;;;;;;;17.42;9.45;;;;;;;17.10;54.12;102088.47;4990227;28;20032;-58
2023/05/20 08:57:12;;;;;;;17.05;9.55;;;;;;;17.21;54.21;102075.88;4990057;28;20038;-61
2023/05/20 08:59:41;;;;;;;15.57;9.10;;;;;;;17.43;54.64;102080.56;4990291;28;20485;-58
2023/05/20 09:02:07;;;;;;;17.90;9.93;;;;;;;17.47;52.71;102094.78;4991661;28;20034;-58
2023/05/20 09:04:33;;;;;;;16.90;9.27;;;;;;;17.38;52.37;102089.13;4993621;28;20042;-58
2023/05/20 09:06:58;;;;;;;17.83;9.10;;;;;;;17.28;51.78;102086.63;4992132;28;20027;-58
2023/05/20 09:09:23;;;;;;;18.52;9.73;;;;;;;17.37;52.47;102075.47;4993189;28;20187;-57
2023/05/20 09:11:49;;;;;;;18.15;9.77;;;;;;;17.28;52.05;102069.84;4993535;28;20026;-57
2023/05/20 09:14:14;;;;;;;16.75;9.00;;;;;;;17.31;51.52;102069.19;4993886;28;20053;-58
2023/05/20 09:16:40;;;;;;;16.30;9.27;;;;;;;17.31;51.59;102069.19;4994032;28;20096;-57
2023/05/20 09:19:06;;;;;;;18.65;9.35;;;;;;;17.22;51.47;102096.28;4994017;28;20027;-58
2023/05/20 09:21:31;;;;;;;17.20;9.25;;;;;;;17.27;52.43;102079.38;4992013;28;20037;-58
2023/05/20 09:24:00;;;;;;;18.80;9.57;;;;;;;17.35;52.32;102072.16;4992493;28;20398;-58
2023/05/20 09:26:27;;;;;;;17.83;10.07;;;;;;;17.49;52.32;102072.88;4993906;28;20109;-57
2023/05/20 09:28:55;;;;;;;19.45;9.45;;;;;;;17.71;52.80;102066.34;4993927;28;20033;-58
2023/05/20 09:31:24;;;;;;;18.88;9.75;;;;;;;17.71;51.51;102073.94;4993807;28;20041;-58
2023/05/20 09:33:51;;;;;;;19.60;9.57;;;;;;;17.69;52.05;102060.28;4993859;28;20124;-59
2023/05/20 09:36:19;;;;;;;16.80;9.20;;;;;;;17.85;52.12;102057.84;4993769;28;20467;-59
2023/05/20 09:38:46;;;;;;;16.52;9.40;;;;;;;17.99;52.19;102065.28;4993852;28;20386;-59
2023/05/20 09:41:12;;;;;;;17.98;9.77;;;;;;;18.02;51.35;102068.25;4993796;28;20034;-59
2023/05/20 09:43:41;;;;;;;15.68;9.40;;;;;;;18.00;50.98;102069.75;4992389;28;20057;-58
2023/05/20 09:46:07;;;;;;;16.98;9.70;;;;;;;17.96;50.91;102066.78;4990168;28;20041;-59
2023/05/20 09:48:35;;;;;;;17.77;9.38;;;;;;;18.11;51.18;102070.22;4993807;28;20054;-59
2023/05/20 09:51:03;;;;;;;17.67;9.73;;;;;;;18.23;51.29;102057.22;4993855;28;20037;-60
2023/05/20 09:53:28;;;;;;;19.83;9.95;;;;;;;18.35;49.95;102066.94;4992464;28;20105;-60
2023/05/20 09:55:54;;;;;;;15.35;9.27;;;;;;;18.47;50.11;102063.47;4993602;28;20168;-59
2023/05/20 09:58:21;;;;;;;17.08;9.40;;;;;;;18.37;49.00;102056.25;4993578;28;20117;-59
2023/05/20 10:00:47;;;;;;;16.92;9.25;;;;;;;18.32;49.74;102065.63;4991809;28;20030;-60
2023/05/20 10:03:12;;;;;;;16.15;8.98;;;;;;;18.54;49.82;102064.63;4993419;28;20033;-61
2023/05/20 10:05:47;;;;;;;18.10;8.98;;;;;;;18.65;48.91;102050.28;4993200;28;20151;-63
2023/05/20 10:08:38;;;;;;;17.13;9.20;;;;;;;18.89;49.55;102048.91;4993493;28;20064;-60
2023/05/20 10:11:41;;;;;;;16.40;8.82;;;;;;;18.90;48.51;102047.75;4993312;28;20034;-59
2023/05/20 10:14:25;;;;;;;18.05;9.43;;;;;;;18.72;48.43;102036.56;4992261;28;20473;-59
2023/05/20 10:17:06;;;;;;;17.80;9.20;;;;;;;18.51;48.86;102040.09;4993329;28;20082;-59
2023/05/20 10:19:32;;;;;;;16.85;9.05;;;;;;;18.43;49.15;102037.28;4993299;28;20269;-59
2023/05/20 10:22:04;;;;;;;16.35;8.50;;;;;;;18.39;49.12;102039.94;4987307;28;20073;-59
2023/05/20 10:24:33;;;;;;;15.93;8.82;;;;;;;18.24;49.97;102044.88;4987810;28;20023;-59
2023/05/20 10:27:01;;;;;;;17.83;8.98;;;;;;;18.21;49.49;102034.34;4990268;28;20035;-58
2023/05/20 10:29:27;;;;;;;19.52;9.63;;;;;;;18.47;50.38;102016.69;4992914;28;20034;-59
2023/05/20 10:31:52;;;;;;;15.70;8.95;;;;;;;18.70;49.38;102005.28;4991338;28;20106;-59
2023/05/20 10:34:19;;;;;;;16.50;9.15;;;;;;;18.78;48.36;102009.19;4982828;28;20035;-59
2023/05/20 10:37:06;;;;;;;17.17;9.38;;;;;;;18.54;49.19;102019.00;4990080;28;20057;-59
2023/05/20 10:39:33;;;;;;;16.27;8.93;;;;;;;18.47;49.80;102001.84;4989501;28;20128;-58
2023/05/20 10:42:09;;;;;;;16.52;9.20;;;;;;;18.69;50.72;102007.25;4988602;28;20084;-59
2023/05/20 10:44:42;;;;;;;16.40;9.10;;;;;;;18.98;48.95;102005.69;4992846;28;20038;-60
2023/05/20 10:47:07;;;;;;;17.58;9.10;;;;;;;19.10;49.26;102007.78;4992475;28;20046;-58
2023/05/20 10:49:34;;;;;;;15.85;9.10;;;;;;;19.24;47.84;101995.53;4992477;28;20036;-59
2023/05/20 10:52:00;;;;;;;17.30;9.43;;;;;;;19.43;47.77;102006.28;4990090;28;20033;-59
2023/05/20 10:54:25;;;;;;;17.90;9.30;;;;;;;19.38;47.76;101998.91;4992094;28;20663;-59
2023/05/20 10:56:52;;;;;;;18.10;9.20;;;;;;;19.35;47.62;102001.56;4991087;28;20034;-59
2023/05/20 10:59:18;;;;;;;18.45;9.25;;;;;;;19.32;47.14;101998.25;4990643;28;20026;-58
2023/05/20 11:01:45;;;;;;;17.33;9.57;;;;;;;19.61;47.34;102001.41;4990857;28;20030;-59
2023/05/20 11:04:14;;;;;;;18.33;9.00;;;;;;;19.67;47.03;101993.63;4990850;28;20030;-61
2023/05/20 11:06:49;;;;;;;16.83;8.75;;;;;;;19.74;46.94;102002.31;4988253;28;20517;-58
2023/05/20 11:09:15;;;;;;;16.08;9.20;;;;;;;19.57;47.60;101986.41;4990937;28;20085;-58